Erik Kait

Recruteur en chef - Levadia
16 Sept 2027
Jeudi
Processus

Personnalité

Adaptabilité (14) Ambition (2) Controverse (17) Loyauté (12) Pression (15) Professionnalisme (12) Sportivité (6) Tempérament (8)

Profil

Style d'entraînement Démocratique
Diplôme Continental A
Détermination 3
Gestion des joueurs 7
Motivation 3
Discipline 10
Satisfaction professionnelle
86%
Fatigue
0%
Rôle Recruteur en chef
Salaire 58.5K p/s
Contrat 14.03.2028

Performance

Comportement Bon
Efficacité de l'entraînement
23%
Développement des joueurs
40%
Prévention des blessures
25%
Mise en place tactique
25%

Événements récents

A participé à une réunion de recrutement maintenant
A participé à une réunion de recrutement maintenant
A participé à une réunion de recrutement 7j
A participé à une réunion de recrutement 7j
A participé à une réunion de recrutement 7j
A participé à une réunion de recrutement 7j
A participé à une réunion de recrutement 14j
A participé à une réunion de recrutement 14j

Suivi en cours

145
Joueur Club Statut Capacité Confiance Observé Dernière observation Dernier vote
Josué Doké Narva Trans Actif 77 / 86 55% 1 19.07.2027 -
Lorenzo Di Stefano Torres Actif 126 / 120 40% 1 21.06.2027 -
Muhammed Hydara Tammeka Actif 94 / 97 30% 1 / 1m 16.06.2027 -
Shayne Lavery Cambridge United Actif 113 / 110 40% 5 31.05.2027 -
Evgeny Voronin Volga Actif 87 / 82 40% 7 30.05.2027 -
Naoufal Bannis Vitesse Actif 94 / 97 40% 1 30.05.2027 -
Aleksej Golijanin Sokol Actif 87 / 89 40% 4 28.05.2027 -
Surkhaikhan Abdullaev KAMAZ Actif 98 / 92 40% 1 28.05.2027 -
Malick Traoré Onze Createurs Actif 117 / 108 40% 2 25.05.2027 Plus d'infos
Luca Franco Arsenal Actif 101 / 114 40% 1 25.05.2027 -
Magomed Nasibov Pobeda Actif 94 / 91 40% 3 24.05.2027 -
Edarlyn Reyes Arsenal Tula Actif 114 / 105 40% 7 24.05.2027 -
Ilja Porokhov Shinnik Actif 88 / 86 40% 2 24.05.2027 -
Alexandr Khokhlachev Rotor Actif 89 / 88 40% 4 24.05.2027 -
Vyacheslav Purak Rubin Yalta Actif 70 / 78 40% 3 23.05.2027 -
Guilherme Neiva AVS Actif 120 / 116 40% 1 23.05.2027 Plus d'infos
Daniil Kondrakov KDV Tomsk Actif 83 / 84 40% 3 20.05.2027 -
Martin Sekulić Ural Actif 115 / 112 40% 9 20.05.2027 -
Ivan Gulko KAMAZ Actif 96 / 93 40% 2 17.05.2027 -
Georgy Gongadze Ufa Actif 105 / 96 40% 3 16.05.2027 -
Daniil Agureev Amkar Actif 94 / 83 40% 4 16.05.2027 -
Alexey Skvortsov Metallurg Actif 80 / 81 40% 2 14.05.2027 -
Víctor Guzmán Sporting CP Actif 86 / 108 40% 1 12.05.2027 -
Jacobo Alcalde SKA Khabarovsk Actif 89 / 91 40% 1 12.05.2027 -
Jonathan Cañete Portuguesa Actif 111 / 111 40% 1 11.05.2027 -
Anderson Pafos Actif 117 / 117 40% 2 10.05.2027 Plus d'infos
Amur Kalmykov Spartak Kostroma Actif 108 / 107 40% 4 09.05.2027 -
Alexandr Saplinov Volga Actif 91 / 96 40% 5 06.05.2027 -
Vladislav Yakovlev Volga Actif 92 / 88 40% 4 05.05.2027 -
Migran Ageyan Ufa Actif 88 / 96 40% 3 04.05.2027 -
Yeangel Montero Naxxar Lions Actif 93 / 115 40% 1 04.05.2027 -
Dmitry Tsypchenko Torpedo Moscow Actif 97 / 100 40% 3 03.05.2027 -
Rashid Magomedov Neftekhimik Actif 89 / 97 40% 4 29.04.2027 -
Dmitry Kamenschikov Arsenal Tula Actif 99 / 99 40% 2 29.04.2027 -
Sultan Djamilov Neftekhimik Actif 83 / 94 40% 2 25.04.2027 -
Siaka Diaby Stade Malien Actif 112 / 97 40% 1 25.04.2027 -
Magomed Abakarov Rotor Actif 91 / 93 40% 1 24.04.2027 -
Jorge Meireles AVS Actif 103 / 113 40% 1 17.04.2027 -
Eren Aydın Zira Actif 126 / 109 40% 1 16.04.2027 -
Denis Rubanov Dinamo Stavropol Actif 77 / 78 40% 2 15.04.2027 -
Aaron Drinan Swindon Town Actif 97 / 115 40% 1 15.04.2027 -
Danil Karpov KAMAZ Actif 80 / 90 40% 3 12.04.2027 -
Ekain Orobengoa Real Sociedad Actif 94 / 104 40% 1 10.04.2027 -
Fortune Bassey Djoliba Actif 103 / 108 40% 2 09.04.2027 -
Ruslan Apekov Torpedo Moscow Actif 102 / 108 40% 4 07.04.2027 Observer
Alexandr Yushin Torpedo Moscow Actif 107 / 109 40% 4 07.04.2027 -
Ilja Stefanovich Leningradets Actif 93 / 88 40% 3 05.04.2027 -
Serder Serderov Dinamo Makhachkala Actif 105 / 93 40% 2 23.03.2027 -
Artem Stepanovich Sevastopol Actif 85 / 87 40% 4 22.03.2027 -
Moussakoye Diallo Stade Malien Actif 87 / 98 40% 1 22.03.2027 -
Evgeny Yegorov Zenit Penza Actif 65 / 68 40% 2 20.03.2027 -
Maxim Kutovoy Salyut Actif 74 / 90 40% 3 16.03.2027 -
Rizvan Umarov Dinamo St Petersburg Actif 72 / 72 40% 4 15.03.2027 -
Nikita Simdyankin KDV Tomsk Actif 88 / 79 40% 5 12.03.2027 -
Andrey Okladnikov Yenisey Actif 85 / 84 40% 2 10.03.2027 -
Banou Cissé Real Bamako Actif 88 / 91 40% 1 07.03.2027 -
Maxim Sergeev Spartak Tambov Actif 75 / 76 40% 1 05.03.2027 -
Kenan Dervišagić Floriana Actif 108 / 89 40% 3 03.03.2027 -
Alexandr Shlenkin Dinamo Bryansk Actif 78 / 66 40% 1 27.02.2027 -
Nicolás Andereggen Ethnikos Achnas Actif 104 / 98 40% 1 26.02.2027 -
Nikolay Maximov Krylya Sovetov Actif 76 / 74 40% 1 22.02.2027 -
Ilja Gruznov Khimik Actif 87 / 84 40% 2 18.02.2027 -
Lamine Diakité Djoliba Actif 105 / 98 40% 1 18.02.2027 -
Georgy Melkadze Akhmat Grozny Actif 113 / 115 40% 7 17.02.2027 Observer
Anton Gurylev Pobeda Actif 70 / 67 40% 1 16.02.2027 -
Mikhail Zabotkin Druzhba Actif 85 / 79 40% 2 11.02.2027 -
Rashid Salimov Pobeda Actif 64 / 75 40% 1 10.02.2027 -
Dmitry Kuptsov Spartak Tambov Actif 73 / 83 40% 1 09.02.2027 -
Alexandr Goryachkin Kvant Actif 71 / 71 40% 1 07.02.2027 -
Ilja Azyavin Arsenal Tula Actif 86 / 90 40% 1 06.02.2027 -
Yordy Reyna Rodina Actif 112 / 109 40% 3 05.02.2027 -
Anton Betyuzhnov Dinamo Vologda Actif 71 / 75 40% 2 04.02.2027 -
Sergey Gribov Dinamo Bryansk Actif 82 / 85 40% 1 03.02.2027 -
Denis Mironov Shinnik Actif 82 / 83 40% 2 02.02.2027 -
Timur Zhamaletdinov Arsenal Tula Actif 101 / 86 40% 1 02.02.2027 -
Bertrand Fourrier Ural Actif 96 / 100 40% 1 01.02.2027 -
Đorđe Pantelić Spartak Kostroma Actif 94 / 106 40% 1 19.01.2027 -
Krasian Kolev Chernomorets Actif 97 / 102 40% 1 19.01.2027 -
Gilson Benchimol Akron Actif 117 / 117 40% 4 01.01.2027 -
David Davidyan Rotor Actif 96 / 95 40% 1 30.12.2026 -
Artem Ntumba Rubin Yalta Actif 78 / 76 40% 1 27.12.2026 -
Mikhail Gainov Dinamo Stavropol Actif 92 / 89 40% 1 26.12.2026 Plus d'infos
Alexandr Dolgov Amkar Actif 96 / 94 40% 1 12.12.2026 -
Alimkhan Alimkhanov Torpedo Vladimir Actif 73 / 70 40% 2 11.12.2026 -
Vincent Aboubakar Neftchi Actif 120 / 115 40% 1 10.12.2026 Plus d'infos
Denis Semin Metallurg Actif 87 / 76 40% 1 09.12.2026 -
Daniil Konoplev Dinamo Bryansk Actif 79 / 75 40% 1 06.12.2026 -
Matija Popović CSKA Moscow Actif 96 / 114 40% 1 05.12.2026 -
Matvey Ivakhnov Mashuk Actif 78 / 71 40% 1 29.11.2026 -
Vladislav Ignatenko Amkar Actif 81 / 79 40% 1 28.11.2026 -
Anton Antonov Chernomorets Actif 91 / 96 40% 1 28.11.2026 -
Alexandr Konev Salyut Actif 68 / 71 40% 2 26.11.2026 -
Robert Murić Floriana Actif 87 / 103 40% 1 26.11.2026 -
Ismael Akhmat Grozny Actif 116 / 125 40% 1 25.11.2026 -
Vladislav Sirotov Torpedo Vladimir Actif 68 / 69 40% 1 25.11.2026 -
Yury Zheleznov Akron Actif 107 / 106 40% 1 23.11.2026 -
Alexey Shulgin Spartak Tambov Actif 79 / 72 40% 1 19.11.2026 -
Ilja Yurchenko Dinamo Vladivostok Actif 72 / 77 40% 1 19.11.2026 -
Sebastián Arce Rodina Actif 121 / 105 40% 1 19.11.2026 -
Jorge Benítez Neftchi Actif 99 / 101 40% 2 17.11.2026 -
Nikos Karelis Sliema Wanderers Actif 88 / 109 40% 1 16.11.2026 -
Andrey Domotsev Mashuk Actif 90 / 79 40% 1 14.11.2026 -
David Karaev KAMAZ Actif 101 / 100 40% 1 04.11.2026 -
Nikita Pogrebnev Ryazan Actif 68 / 78 40% 1 01.11.2026 -
Yegor Kortsov Dinamo Brest Actif 105 / 106 40% 2 25.10.2026 -
Fabricio Rojas Gimnasia y Tiro Actif 122 / 103 40% 1 20.10.2026 -
Vyacheslav Krotov Volgar Actif 98 / 91 40% 1 18.10.2026 -
Kirill Tsepenkov Dnepr Mogilev Actif 84 / 103 40% 2 16.10.2026 -
Rasil Asaidulin Murom Actif 65 / 83 40% 1 14.10.2026 -
Valeriy Gorbachik Arsenal Dzerzhinsk Actif 82 / 92 40% 2 12.10.2026 -
Ivan Matyushenko Alania Actif 96 / 75 40% 1 10.10.2026 -
Denis M. Kovalevich Dinamo Brest Actif 86 / 94 40% 1 09.10.2026 -
Alassana Jatta Notts County Actif 124 / 94 40% 1 07.10.2026 -
Agil Sheydaev Khazar Actif 109 / 118 40% 1 04.10.2026 -
Egor Bogomolskiy Zira Actif 92 / 108 40% 1 01.10.2026 -
Rauno Sappinen Flora Actif 98 / 112 40% 1 01.10.2026 Plus d'infos
Alexandr Makas Actif 90 / 79 40% 1 27.09.2026 -
Diego Valencia Universidad Catolica Actif 107 / 120 40% 1 26.09.2026 -
Steven Alfred Torpedo-BelAZ Actif 109 / 94 40% 1 22.09.2026 -
Alexandr Butko Isloch Actif 92 / 88 40% 3 21.09.2026 -
Sam Nombe Milton Keynes Dons Actif 94 / 107 40% 1 21.09.2026 -
Evgeniy Malashevich Dinamo Brest Actif 89 / 93 40% 2 20.09.2026 -
Leonard Chatelin Gweth Dinamo Minsk Actif 92 / 86 40% 1 19.09.2026 -
Kirill Kirilenko Dnepr Mogilev Actif 100 / 95 40% 1 18.09.2026 -
Eduard Balanovich Lokomotiv Gomel Actif 64 / 79 40% 2 15.09.2026 -
Bruno Hernández Cerro Largo Actif 86 / 105 40% 1 14.09.2026 -
Diamanka Senghor Mosta Actif 77 / 79 40% 1 14.09.2026 -
Louis Appéré Cambridge United Actif 108 / 101 40% 1 13.09.2026 -
Dmitriy Latykhov Bumprom Gomel Actif 74 / 73 40% 1 12.09.2026 -
Ruslan Gogniev Lida Actif 73 / 85 40% 1 12.09.2026 -
Sergey Pushnyakov Neman Actif 110 / 97 40% 1 11.09.2026 -
Kirill Sidorenko Bumprom Gomel Actif 79 / 65 40% 1 10.09.2026 -
Vladislav Chebotar Slutsk Actif 73 / 70 40% 1 09.09.2026 -
Gonzalo Bueno Racing Actif 103 / 107 40% 1 07.09.2026 -
Andrey Solovey Slavia Mozyr Actif 94 / 102 40% 1 07.09.2026 -
Artem Stankevich Smorgon Actif 87 / 79 40% 1 05.09.2026 -
Nikita Rozhkov Dinamo Stavropol Actif 73 / 71 40% 2 04.09.2026 -
Ignacio Sabatini Gimnasia y Esgrima Actif 93 / 97 40% 1 04.09.2026 -
Arseniy Zhukovskiy Slonim Actif 87 / 74 40% 1 03.09.2026 -
Ruslan Ozobic Inter Actif 120 / 115 40% 1 24.08.2026 -
Cecilio Waterman Fenix Actif 111 / 112 40% 1 24.08.2026 -
Mark Maksimkin Narva Trans Perdu 86 / 82 55% 1 17.08.2026 -
Tobías Ganduglia Independiente Rivadavia Actif 84 / 94 40% 1 17.08.2026 -
Tomás Romero Unión de Santa Fe Actif 93 / 106 40% 1 04.08.2026 -
Ali Reghba NK Maribor Actif 100 / 103 40% 1 03.08.2026 -